Terminal Aerodrome Forecast
Issued by NWS Louisville, KY

Home | Current Version | Previous Version | Text Only | Print | Product List | Glossary On
Versions: 1 2 3 4 5 6 7 8 9 10 11 12 13 14
000
FTUS43 KLMK 190500
TAFBWG
TAF
KBWG 190536Z 1906/2006 35003KT P6SM SCT040
     FM191000 VRB03KT 5SM BR FEW025
     FM191300 VRB04KT P6SM FEW020=

USA.gov is the U.S. government's official web portal to all federal, state and local government web resources and services.